Time;durP1;ratioP1;P1;durP2;ratioP2;P2;SDS_P1;SDS_P2;PMS_P1;PMS_P2;Temp;Humidity;BMP_temperature;BMP_pressure;BME280_temperature;BME280_humidity;BME280_pressure;Samples;Min_cycle;Max_cycle;Signal;HPM_P1;HPM_P2
2022/12/28 00:00:28;;;;;;;56.40;27.88;;;0.90;99.90;;;;;;5034856;28;20033;-74
2022/12/28 00:02:55;;;;;;;44.78;22.58;;;0.80;99.90;;;;;;5035239;28;20030;-80
2022/12/28 00:05:21;;;;;;;50.35;27.92;;;0.80;99.90;;;;;;5034554;28;20034;-79
2022/12/28 00:07:47;;;;;;;39.53;19.92;;;0.80;99.90;;;;;;5035206;28;20044;-74
2022/12/28 00:10:13;;;;;;;35.45;20.00;;;0.80;99.90;;;;;;5052696;28;20104;-81
2022/12/28 00:12:38;;;;;;;42.97;22.25;;;0.80;99.90;;;;;;5035008;28;20467;-79
2022/12/28 00:15:04;;;;;;;33.83;17.27;;;0.70;99.90;;;;;;5033467;28;20535;-80
2022/12/28 00:17:30;;;;;;;36.78;18.52;;;0.70;99.90;;;;;;5034789;28;20109;-80
2022/12/28 00:19:58;;;;;;;41.33;21.60;;;0.70;99.90;;;;;;5034724;28;20125;-72
2022/12/28 00:22:23;;;;;;;39.60;19.75;;;0.70;99.90;;;;;;5034531;28;20510;-73
2022/12/28 00:24:49;;;;;;;41.08;19.45;;;0.60;99.90;;;;;;5033472;28;20125;-73
2022/12/28 00:27:14;;;;;;;34.13;20.85;;;0.60;99.90;;;;;;5047531;28;20479;-79
2022/12/28 00:29:40;;;;;;;38.45;19.42;;;0.60;99.90;;;;;;5034701;28;20061;-80
2022/12/28 00:32:06;;;;;;;39.53;18.70;;;0.60;99.90;;;;;;5054455;28;20025;-79
2022/12/28 00:34:31;;;;;;;35.55;19.05;;;0.50;99.90;;;;;;5054619;28;20100;-80
2022/12/28 00:36:57;;;;;;;33.60;16.42;;;0.50;99.90;;;;;;5049412;28;20026;-80
2022/12/28 00:39:22;;;;;;;34.78;18.48;;;0.60;99.90;;;;;;5034440;28;20029;-79
2022/12/28 00:41:48;;;;;;;32.00;18.23;;;0.60;99.90;;;;;;5048207;28;20029;-74
2022/12/28 00:44:14;;;;;;;30.67;17.85;;;0.50;99.90;;;;;;5054233;28;20479;-79
2022/12/28 00:46:40;;;;;;;31.25;19.20;;;0.50;99.90;;;;;;5049336;28;20079;-73
2022/12/28 00:49:05;;;;;;;39.38;17.58;;;0.50;99.90;;;;;;5039100;28;20036;-75
2022/12/28 00:51:31;;;;;;;38.35;19.15;;;0.50;99.90;;;;;;5040241;28;20033;-79
2022/12/28 00:53:56;;;;;;;28.27;16.20;;;0.60;99.90;;;;;;5034206;28;20028;-80
2022/12/28 00:56:22;;;;;;;35.72;17.10;;;0.60;99.90;;;;;;5043138;28;20036;-80
2022/12/28 00:58:48;;;;;;;32.55;16.80;;;0.60;99.90;;;;;;5053737;28;20037;-80
2022/12/28 01:01:19;;;;;;;26.67;16.20;;;0.60;99.90;;;;;;5053582;28;20025;-80
2022/12/28 01:03:45;;;;;;;29.90;16.13;;;0.60;99.90;;;;;;5052771;28;20119;-80
2022/12/28 01:06:13;;;;;;;39.22;21.63;;;0.60;99.90;;;;;;5053345;28;20547;-79
2022/12/28 01:08:39;;;;;;;35.17;20.98;;;0.60;99.90;;;;;;5052386;28;20072;-80
2022/12/28 01:11:11;;;;;;;44.03;22.40;;;0.70;99.90;;;;;;5039994;28;20482;-73
2022/12/28 01:13:37;;;;;;;33.63;20.02;;;0.70;99.90;;;;;;5033887;28;20033;-79
2022/12/28 01:16:11;;;;;;;27.80;16.05;;;0.70;99.90;;;;;;5033288;28;20494;-80
2022/12/28 01:18:37;;;;;;;32.10;18.05;;;0.60;99.90;;;;;;5032805;28;20036;-72
2022/12/28 01:21:12;;;;;;;30.17;16.60;;;0.60;99.90;;;;;;5041401;28;20049;-73
2022/12/28 01:23:37;;;;;;;31.55;16.08;;;0.60;99.90;;;;;;5032387;28;20395;-79
2022/12/28 01:26:03;;;;;;;27.88;16.52;;;0.60;99.90;;;;;;5045739;28;20025;-80
2022/12/28 01:28:29;;;;;;;29.73;17.25;;;0.60;99.90;;;;;;5052277;28;20422;-80
2022/12/28 01:30:55;;;;;;;41.70;19.23;;;0.60;99.90;;;;;;5039669;28;20034;-80
2022/12/28 01:33:20;;;;;;;45.83;18.85;;;0.60;99.90;;;;;;5033488;28;20104;-80
2022/12/28 01:35:46;;;;;;;30.80;16.13;;;0.60;99.90;;;;;;5033123;28;20450;-73
2022/12/28 01:38:11;;;;;;;47.20;21.67;;;0.60;99.90;;;;;;5031997;28;20028;-73
2022/12/28 01:40:42;;;;;;;44.42;19.85;;;0.60;99.90;;;;;;5033029;28;20053;-73
2022/12/28 01:43:14;;;;;;;65.18;26.02;;;0.60;99.90;;;;;;5033308;28;20069;-80
2022/12/28 01:45:42;;;;;;;71.90;28.67;;;0.60;99.90;;;;;;5033042;28;20025;-80
2022/12/28 01:48:19;;;;;;;64.55;26.92;;;0.60;99.90;;;;;;5033217;28;20032;-74
2022/12/28 01:50:46;;;;;;;109.90;40.60;;;0.50;99.90;;;;;;5051819;28;20074;-80
2022/12/28 01:53:12;;;;;;;95.28;36.58;;;0.50;99.90;;;;;;5053004;28;20025;-74
2022/12/28 01:55:41;;;;;;;65.03;27.42;;;0.50;99.90;;;;;;5052715;28;20029;-80
2022/12/28 01:58:12;;;;;;;55.33;24.40;;;0.40;99.90;;;;;;5053017;28;20491;-73
2022/12/28 02:00:38;;;;;;;49.60;20.02;;;0.30;99.90;;;;;;5047743;28;20384;-79
2022/12/28 02:03:09;;;;;;;50.08;20.80;;;0.30;99.90;;;;;;5031723;28;20022;-79
2022/12/28 02:05:42;;;;;;;39.63;19.98;;;0.30;99.90;;;;;;5041973;28;20115;-73
2022/12/28 02:08:10;;;;;;;;;;;0.20;99.90;;;;;;5053314;28;20044;-79
2022/12/28 02:10:36;;;;;;;31.83;17.05;;;0.10;99.90;;;;;;5046756;28;19935;-73
2022/12/28 02:13:03;;;;;;;29.33;16.25;;;0.00;99.90;;;;;;5032987;28;20459;-76
2022/12/28 02:15:29;;;;;;;30.60;17.00;;;0.00;99.90;;;;;;5036140;28;20017;-81
2022/12/28 02:17:55;;;;;;;27.58;15.10;;;-0.10;99.90;;;;;;5032950;28;20506;-81
2022/12/28 02:20:25;;;;;;;24.83;14.55;;;-0.20;99.90;;;;;;5039877;28;20045;-82
2022/12/28 02:23:03;;;;;;;26.27;15.68;;;-0.20;99.90;;;;;;5051550;28;20167;-81
2022/12/28 02:26:03;;;;;;;24.67;14.88;;;-0.30;99.90;;;;;;5047948;28;20034;-81
2022/12/28 02:28:47;;;;;;;28.45;14.40;;;-0.30;99.90;;;;;;5032925;28;20076;-75
2022/12/28 02:31:33;;;;;;;27.38;14.77;;;-0.30;99.90;;;;;;5047099;28;20039;-75
2022/12/28 02:34:43;;;;;;;30.05;16.45;;;-0.40;99.90;;;;;;5051475;28;20032;-81
2022/12/28 02:37:15;;;;;;;27.67;15.52;;;-0.50;99.90;;;;;;5010550;28;20413;-75
2022/12/28 02:39:47;;;;;;;25.95;14.90;;;-0.50;99.90;;;;;;5034899;28;20095;-75
2022/12/28 02:42:15;;;;;;;25.70;15.05;;;-0.50;99.90;;;;;;5055332;28;20052;-81
2022/12/28 02:50:13;;;;;;;28.70;15.52;;;-0.70;99.90;;;;;;5055173;28;20120;-75
2022/12/28 02:52:41;;;;;;;35.30;15.18;;;-0.70;99.90;;;;;;5036406;28;20020;-81
2022/12/28 02:58:37;;;;;;;31.35;14.23;;;-0.80;99.90;;;;;;5036549;28;20036;-81
2022/12/28 03:01:24;;;;;;;21.50;12.95;;;-0.90;99.90;;;;;;5036081;28;20029;-81
2022/12/28 03:04:20;;;;;;;22.25;14.98;;;-0.90;99.90;;;;;;5035005;28;20029;-75
2022/12/28 03:09:58;;;;;;;23.80;13.27;;;-0.90;99.90;;;;;;5052545;28;20043;-75
2022/12/28 03:12:35;;;;;;;25.35;14.65;;;-0.90;99.90;;;;;;5036387;28;20029;-81
2022/12/28 03:15:05;;;;;;;24.20;14.45;;;-0.90;99.90;;;;;;5035782;28;20310;-81
2022/12/28 03:31:33;;;;;;;31.70;14.38;;;-1.20;99.90;;;;;;5035561;28;20517;-81
2022/12/28 03:34:06;;;;;;;26.77;13.65;;;-1.30;99.90;;;;;;5035761;28;20390;-75
2022/12/28 03:36:50;;;;;;;28.02;15.05;;;-1.30;99.90;;;;;;5035448;28;20112;-74
2022/12/28 03:39:33;;;;;;;26.60;15.15;;;-1.30;99.90;;;;;;5035715;28;20021;-74
2022/12/28 03:45:30;;;;;;;22.33;13.77;;;-1.30;99.90;;;;;;5040608;28;20590;-75
2022/12/28 03:47:59;;;;;;;26.65;14.38;;;-1.30;99.90;;;;;;5055473;28;20554;-75
2022/12/28 03:50:27;;;;;;;23.50;14.93;;;-1.40;99.90;;;;;;5051309;28;20033;-75
2022/12/28 03:52:53;;;;;;;25.90;13.77;;;-1.40;99.90;;;;;;5034258;28;20463;-81
2022/12/28 03:55:18;;;;;;;25.23;13.13;;;-1.40;99.90;;;;;;5037376;28;20021;-81
2022/12/28 03:57:44;;;;;;;27.38;14.65;;;-1.50;99.90;;;;;;5034052;28;20052;-76
2022/12/28 04:00:10;;;;;;;27.58;15.50;;;-1.50;99.90;;;;;;5034507;28;20108;-75
2022/12/28 04:02:36;;;;;;;26.10;13.93;;;-1.50;99.90;;;;;;5055063;28;20029;-75
2022/12/28 04:05:03;;;;;;;21.92;13.05;;;-1.50;99.90;;;;;;5054999;28;20029;-75
2022/12/28 04:07:28;;;;;;;28.05;13.55;;;-1.60;99.90;;;;;;5054906;28;20104;-82
2022/12/28 04:09:54;;;;;;;24.45;13.00;;;-1.60;99.90;;;;;;5049369;28;20120;-74
2022/12/28 04:12:20;;;;;;;23.25;12.80;;;-1.60;99.90;;;;;;5035145;28;20032;-76
2022/12/28 04:14:45;;;;;;;26.77;12.07;;;-1.70;99.90;;;;;;5033621;28;20025;-74
2022/12/28 04:17:11;;;;;;;22.95;13.90;;;-1.70;99.90;;;;;;5052309;28;20085;-76
2022/12/28 04:19:37;;;;;;;27.45;13.88;;;-1.70;99.90;;;;;;5053347;28;20057;-81
2022/12/28 04:22:02;;;;;;;23.90;13.65;;;-1.70;99.90;;;;;;5054415;28;20104;-81
2022/12/28 04:24:28;;;;;;;27.67;13.02;;;-1.80;99.90;;;;;;5054635;28;20025;-75
2022/12/28 04:26:54;;;;;;;45.75;28.38;;;-1.80;99.90;;;;;;5054442;28;20091;-81
2022/12/28 04:29:19;;;;;;;47.60;20.55;;;-1.80;99.90;;;;;;5054503;28;20479;-76
2022/12/28 04:31:45;;;;;;;46.40;19.35;;;-1.80;99.90;;;;;;5054314;28;20486;-81
2022/12/28 04:34:11;;;;;;;55.10;22.27;;;-1.80;99.90;;;;;;5054406;28;20025;-81
2022/12/28 04:36:41;;;;;;;47.55;21.60;;;-1.90;99.90;;;;;;5053240;28;20029;-81
2022/12/28 04:39:07;;;;;;;57.47;21.17;;;-1.90;99.90;;;;;;5054487;28;20120;-81
2022/12/28 04:41:33;;;;;;;51.40;21.73;;;-1.90;99.90;;;;;;5054050;28;20072;-81
2022/12/28 04:43:58;;;;;;;42.83;20.00;;;-1.90;99.90;;;;;;5053009;28;20471;-81
2022/12/28 04:46:24;;;;;;;45.40;18.30;;;-1.80;99.90;;;;;;5053803;28;20037;-74
2022/12/28 04:48:50;;;;;;;41.83;17.05;;;-1.80;99.90;;;;;;5054147;28;20021;-75
2022/12/28 04:51:22;;;;;;;36.03;16.20;;;-1.80;99.90;;;;;;5052530;28;20403;-81
2022/12/28 04:53:48;;;;;;;31.42;16.67;;;-1.80;99.90;;;;;;5054303;28;20478;-81
2022/12/28 04:56:15;;;;;;;30.30;15.98;;;-1.90;99.90;;;;;;5053556;28;20017;-75
2022/12/28 04:58:41;;;;;;;32.63;14.88;;;-1.90;99.90;;;;;;5054108;28;20086;-81
2022/12/28 05:01:09;;;;;;;28.90;13.73;;;-1.90;99.90;;;;;;5039303;28;20021;-81
2022/12/28 05:03:36;;;;;;;28.85;14.30;;;-1.90;99.90;;;;;;5032989;28;20125;-74
2022/12/28 05:06:03;;;;;;;30.45;14.70;;;-2.00;99.90;;;;;;5033547;28;20499;-74
2022/12/28 05:08:31;;;;;;;24.23;14.63;;;-2.00;99.90;;;;;;5040849;28;20032;-74
2022/12/28 05:11:04;;;;;;;20.85;12.48;;;-2.00;99.90;;;;;;5045909;28;20030;-75
2022/12/28 05:13:30;;;;;;;21.42;12.25;;;-2.10;99.90;;;;;;5033879;28;20033;-81
2022/12/28 05:16:04;;;;;;;21.95;11.93;;;-2.10;99.90;;;;;;5033305;28;20030;-81
2022/12/28 05:18:29;;;;;;;25.23;13.48;;;-2.10;99.90;;;;;;5033917;28;20471;-76
2022/12/28 05:21:00;;;;;;;25.08;13.25;;;-2.10;99.90;;;;;;5033184;28;20060;-75
2022/12/28 05:23:28;;;;;;;27.42;14.48;;;-2.20;99.90;;;;;;5033714;28;20025;-81
2022/12/28 05:25:54;;;;;;;42.10;16.35;;;-2.20;99.90;;;;;;5040700;28;20021;-81
2022/12/28 05:28:20;;;;;;;47.00;20.98;;;-2.20;99.90;;;;;;5033624;28;20427;-81
2022/12/28 05:30:45;;;;;;;27.55;13.77;;;-2.20;99.90;;;;;;5037797;28;20033;-75
2022/12/28 05:33:11;;;;;;;27.42;13.23;;;-2.20;99.90;;;;;;5052145;28;20062;-81
2022/12/28 05:35:37;;;;;;;23.05;12.15;;;-2.20;99.90;;;;;;5052959;28;20155;-81
2022/12/28 05:38:02;;;;;;;25.50;12.27;;;-2.20;99.90;;;;;;5053609;28;20494;-82
2022/12/28 05:40:28;;;;;;;18.30;11.05;;;-2.30;99.90;;;;;;5052965;28;20067;-81
2022/12/28 05:42:53;;;;;;;21.67;11.57;;;-2.30;99.90;;;;;;5053342;28;20108;-81
2022/12/28 05:45:19;;;;;;;26.80;13.23;;;-2.30;99.90;;;;;;5050466;28;20039;-81
2022/12/28 05:47:45;;;;;;;28.98;12.32;;;-2.30;99.90;;;;;;5032177;28;20084;-77
2022/12/28 05:50:10;;;;;;;26.35;14.18;;;-2.40;99.90;;;;;;5047024;28;20056;-81
2022/12/28 05:52:44;;;;;;;30.35;15.52;;;-2.40;99.90;;;;;;5053086;28;20020;-82
2022/12/28 05:55:10;;;;;;;27.92;14.02;;;-2.40;99.90;;;;;;5052749;28;20061;-81
2022/12/28 05:57:36;;;;;;;25.52;15.77;;;-2.40;99.90;;;;;;5051926;28;20056;-76
2022/12/28 06:00:01;;;;;;;30.33;14.63;;;-2.50;99.90;;;;;;5052669;28;20108;-81
2022/12/28 06:02:27;;;;;;;39.58;17.63;;;-2.50;99.90;;;;;;5051711;28;20032;-82
2022/12/28 06:04:53;;;;;;;35.30;16.25;;;-2.50;99.90;;;;;;5052754;28;20544;-75
2022/12/28 06:07:19;;;;;;;31.63;16.10;;;-2.60;99.90;;;;;;5052879;28;20498;-75
2022/12/28 06:09:45;;;;;;;35.30;16.50;;;-2.60;99.90;;;;;;5050029;28;20033;-75
2022/12/28 06:12:10;;;;;;;34.05;15.75;;;-2.60;99.90;;;;;;5034709;28;20076;-77
2022/12/28 06:14:36;;;;;;;42.05;17.48;;;-2.70;99.90;;;;;;5036819;28;20026;-75
2022/12/28 06:17:01;;;;;;;28.92;16.75;;;-2.80;99.90;;;;;;5037073;28;20092;-75
2022/12/28 06:19:27;;;;;;;35.13;17.20;;;-2.70;99.90;;;;;;5052883;28;20487;-73
2022/12/28 06:21:53;;;;;;;28.08;15.95;;;-2.80;99.90;;;;;;5052062;28;20072;-73
2022/12/28 06:24:18;;;;;;;34.08;18.55;;;-2.80;99.90;;;;;;5036984;28;20475;-73
2022/12/28 06:26:44;;;;;;;35.58;16.25;;;-2.90;99.90;;;;;;5049176;28;20024;-73
2022/12/28 06:29:10;;;;;;;30.35;16.60;;;-2.90;99.90;;;;;;5056787;28;20039;-76
2022/12/28 06:31:38;;;;;;;49.05;22.70;;;-2.90;99.90;;;;;;5056293;28;20057;-75
2022/12/28 06:34:06;;;;;;;49.22;20.13;;;-2.90;99.90;;;;;;5056154;28;20021;-75
2022/12/28 06:36:34;;;;;;;51.47;22.52;;;-2.90;99.90;;;;;;5055384;28;20044;-80
2022/12/28 06:39:02;;;;;;;139.50;50.78;;;-2.80;99.90;;;;;;5055033;28;20509;-73
2022/12/28 06:41:28;;;;;;;456.00;167.93;;;-2.80;99.90;;;;;;5040659;28;20031;-74
2022/12/28 06:43:55;;;;;;;336.85;122.03;;;-2.80;99.90;;;;;;5053528;28;20394;-74
2022/12/28 06:46:22;;;;;;;173.10;70.55;;;-2.80;99.90;;;;;;5052016;28;20478;-74
2022/12/28 06:48:49;;;;;;;111.00;46.20;;;-2.80;99.90;;;;;;5052757;28;20013;-76
2022/12/28 06:51:20;;;;;;;93.72;41.38;;;-2.90;99.90;;;;;;5045015;28;20044;-81
2022/12/28 06:53:47;;;;;;;132.32;53.75;;;-2.80;99.90;;;;;;5049575;28;20043;-80
2022/12/28 06:56:19;;;;;;;71.85;31.88;;;-2.80;99.90;;;;;;5046172;28;20487;-75
2022/12/28 06:58:46;;;;;;;49.88;23.63;;;-2.80;99.90;;;;;;5035287;28;20564;-75
2022/12/28 07:01:18;;;;;;;57.17;27.75;;;-2.80;99.90;;;;;;5035936;28;20029;-75
2022/12/28 07:03:45;;;;;;;196.70;72.70;;;-2.80;99.90;;;;;;5035134;28;20041;-81
2022/12/28 07:06:12;;;;;;;195.45;77.93;;;-2.80;99.90;;;;;;5040567;28;20120;-75
2022/12/28 07:08:38;;;;;;;201.63;85.00;;;-2.90;99.90;;;;;;5043855;28;20050;-81
2022/12/28 07:11:21;;;;;;;133.02;55.97;;;-2.80;99.90;;;;;;5042409;28;20037;-82
2022/12/28 07:13:47;;;;;;;47.28;23.70;;;-2.80;99.90;;;;;;5036300;28;20490;-76
2022/12/28 07:16:19;;;;;;;26.13;17.25;;;-2.80;99.90;;;;;;5045682;28;20497;-75
2022/12/28 07:18:44;;;;;;;25.65;14.00;;;-2.80;99.90;;;;;;5036041;28;20017;-81
2022/12/28 07:21:17;;;;;;;27.52;15.13;;;-2.80;99.90;;;;;;5049599;28;20467;-75
2022/12/28 07:23:43;;;;;;;21.75;14.07;;;-2.70;99.90;;;;;;5053889;28;20017;-81
2022/12/28 07:26:16;;;;;;;30.13;16.02;;;-2.60;99.90;;;;;;5050859;28;20116;-82
2022/12/28 07:28:45;;;;;;;24.63;14.88;;;-2.60;99.90;;;;;;5034591;28;20167;-75
2022/12/28 07:31:15;;;;;;;25.38;16.20;;;-2.40;99.90;;;;;;5049906;28;20044;-79
2022/12/28 07:33:42;;;;;;;31.60;16.77;;;-2.40;99.90;;;;;;5055595;28;20017;-82
2022/12/28 07:36:10;;;;;;;27.25;15.65;;;-2.30;99.90;;;;;;5054924;28;20029;-77
2022/12/28 07:38:36;;;;;;;29.25;15.85;;;-2.20;99.90;;;;;;5048933;28;20107;-82
2022/12/28 07:41:04;;;;;;;35.67;17.45;;;-2.10;99.90;;;;;;5058378;28;20116;-81
2022/12/28 07:43:33;;;;;;;30.20;17.88;;;-2.00;99.90;;;;;;5045991;28;20033;-82
2022/12/28 07:46:13;;;;;;;33.08;19.20;;;-1.90;99.90;;;;;;5041471;28;20021;-82
2022/12/28 07:48:40;;;;;;;34.53;19.38;;;-1.70;99.90;;;;;;5041277;28;20065;-75
2022/12/28 07:51:18;;;;;;;34.60;20.88;;;-1.70;99.90;;;;;;5044998;28;20045;-82
2022/12/28 07:53:45;;;;;;;35.13;18.30;;;-1.60;99.90;;;;;;5035185;28;20038;-76
2022/12/28 07:56:12;;;;;;;30.92;14.57;;;-1.50;99.90;;;;;;5046815;28;20048;-82
2022/12/28 07:58:37;;;;;;;23.40;13.40;;;-1.40;99.90;;;;;;5052189;28;20047;-82
2022/12/28 08:01:07;;;;;;;31.48;16.48;;;-1.30;99.90;;;;;;5048473;28;20025;-82
2022/12/28 08:03:33;;;;;;;29.50;15.50;;;-1.20;99.90;;;;;;5048975;28;20128;-82
2022/12/28 08:06:11;;;;;;;33.05;18.52;;;-1.10;99.90;;;;;;5052097;28;20029;-82
2022/12/28 08:08:40;;;;;;;40.40;19.17;;;-1.10;99.90;;;;;;5050978;28;20075;-82
2022/12/28 08:11:09;;;;;;;42.20;20.67;;;-1.00;99.90;;;;;;5049604;28;20387;-76
2022/12/28 08:13:36;;;;;;;47.28;24.23;;;-1.00;99.90;;;;;;5049699;28;20128;-82
2022/12/28 08:16:03;;;;;;;50.05;23.10;;;-0.90;99.90;;;;;;5051291;28;20526;-82
2022/12/28 08:18:30;;;;;;;50.55;23.02;;;-0.80;99.90;;;;;;5049570;28;20021;-76
2022/12/28 08:21:00;;;;;;;49.85;26.48;;;-0.80;99.90;;;;;;5053254;28;20505;-76
2022/12/28 08:23:26;;;;;;;63.60;26.83;;;-0.80;99.90;;;;;;5048688;28;20029;-74
2022/12/28 08:25:52;;;;;;;65.47;34.65;;;-0.70;99.90;;;;;;5053642;28;20382;-76
2022/12/28 08:28:17;;;;;;;63.38;32.33;;;-0.60;99.90;;;;;;5053252;28;20021;-76
2022/12/28 08:30:43;;;;;;;61.50;31.05;;;-0.50;99.90;;;;;;5053314;28;20049;-76
2022/12/28 08:33:08;;;;;;;53.65;28.00;;;-0.40;99.90;;;;;;5052605;28;20029;-73
2022/12/28 08:35:34;;;;;;;48.60;25.98;;;-0.40;99.90;;;;;;5050654;28;20059;-75
2022/12/28 08:37:59;;;;;;;43.03;22.20;;;-0.30;99.90;;;;;;5052564;28;20445;-76
2022/12/28 08:40:28;;;;;;;32.40;16.80;;;-0.20;99.90;;;;;;5050823;28;20045;-75
2022/12/28 08:42:58;;;;;;;32.95;18.05;;;-0.10;99.90;;;;;;5052771;28;20034;-75
2022/12/28 08:45:24;;;;;;;40.60;20.52;;;-0.10;99.90;;;;;;5052446;28;20116;-75
2022/12/28 08:47:50;;;;;;;39.05;17.63;;;0.00;99.90;;;;;;5052602;28;20017;-75
2022/12/28 08:50:16;;;;;;;39.17;18.63;;;0.10;99.90;;;;;;5049449;28;20570;-75
2022/12/28 08:52:41;;;;;;;50.35;22.48;;;0.20;99.90;;;;;;5050631;28;20064;-75
2022/12/28 08:55:07;;;;;;;43.03;19.38;;;0.20;99.90;;;;;;5050878;28;20049;-75
2022/12/28 08:57:33;;;;;;;27.02;14.40;;;0.20;99.90;;;;;;5049058;28;20467;-75
2022/12/28 08:59:58;;;;;;;36.08;17.55;;;0.30;99.90;;;;;;5049932;28;20438;-76
2022/12/28 09:02:24;;;;;;;35.38;20.65;;;0.30;99.90;;;;;;5052072;28;20017;-75
2022/12/28 09:04:49;;;;;;;23.80;14.63;;;0.40;99.90;;;;;;5052121;28;20033;-75
2022/12/28 09:07:15;;;;;;;24.90;14.57;;;0.50;99.90;;;;;;5049479;28;20024;-75
2022/12/28 09:09:41;;;;;;;26.23;12.40;;;0.50;99.90;;;;;;5048933;28;20050;-75
2022/12/28 09:12:06;;;;;;;18.27;10.10;;;0.50;99.90;;;;;;5052720;28;20031;-75
2022/12/28 09:14:32;;;;;;;21.17;12.02;;;0.60;99.90;;;;;;5051327;28;20039;-74
2022/12/28 09:16:59;;;;;;;22.08;10.88;;;0.60;99.90;;;;;;5051482;28;20387;-82
2022/12/28 09:19:25;;;;;;;25.35;13.95;;;0.70;99.90;;;;;;5052392;28;20095;-81
2022/12/28 09:21:51;;;;;;;22.58;12.48;;;0.70;99.90;;;;;;5052184;28;20044;-75
2022/12/28 09:24:18;;;;;;;18.35;11.05;;;0.80;99.90;;;;;;5043606;28;20052;-81
2022/12/28 09:26:43;;;;;;;17.90;9.80;;;0.80;99.90;;;;;;5051642;28;20028;-81
2022/12/28 09:29:12;;;;;;;20.00;11.30;;;0.90;99.90;;;;;;5048445;28;20036;-81
2022/12/28 09:31:39;;;;;;;21.40;12.07;;;0.90;99.90;;;;;;5050797;28;20493;-81
2022/12/28 09:34:06;;;;;;;16.65;11.40;;;0.90;99.90;;;;;;5047409;28;20024;-81
2022/12/28 09:36:38;;;;;;;23.95;10.70;;;0.90;99.90;;;;;;5049474;28;20024;-79
2022/12/28 09:39:17;;;;;;;22.98;12.18;;;1.00;99.90;;;;;;5049013;28;20112;-79
2022/12/28 09:41:56;;;;;;;20.30;12.32;;;1.00;99.90;;;;;;5049710;28;20486;-80
2022/12/28 09:44:40;;;;;;;74.07;45.20;;;1.00;99.90;;;;;;5049874;28;20534;-79
2022/12/28 09:47:24;;;;;;;182.45;118.00;;;1.00;99.90;;;;;;5048972;28;20022;-72
2022/12/28 09:50:27;;;;;;;126.50;84.80;;;1.00;99.90;;;;;;5051858;28;20072;-73
2022/12/28 09:53:14;;;;;;;74.77;49.63;;;1.10;99.90;;;;;;5050575;28;20040;-73
2022/12/28 09:55:47;;;;;;;48.47;31.88;;;1.10;99.90;;;;;;5051182;28;20064;-73
2022/12/28 09:58:15;;;;;;;34.95;18.88;;;1.10;99.90;;;;;;5051883;28;20021;-72
2022/12/28 10:00:45;;;;;;;33.92;18.88;;;1.20;99.90;;;;;;5051797;28;20037;-73
2022/12/28 10:03:21;;;;;;;32.75;18.10;;;1.20;99.90;;;;;;5049007;28;20051;-73
2022/12/28 10:05:48;;;;;;;30.23;16.92;;;1.30;99.90;;;;;;5050408;28;20606;-72
2022/12/28 10:08:17;;;;;;;27.63;15.95;;;1.30;99.90;;;;;;5049811;28;20021;-73
2022/12/28 10:10:44;;;;;;;28.08;14.38;;;1.30;99.90;;;;;;5048838;28;20044;-72
2022/12/28 10:13:20;;;;;;;31.10;15.65;;;1.30;99.90;;;;;;5047972;28;20017;-73
2022/12/28 10:15:46;;;;;;;37.15;14.95;;;1.40;99.90;;;;;;5050522;28;20041;-72
2022/12/28 10:18:24;;;;;;;33.05;16.75;;;1.40;99.90;;;;;;5050311;28;20021;-73
2022/12/28 10:20:50;;;;;;;28.20;14.40;;;1.50;99.90;;;;;;5050099;28;20053;-73
2022/12/28 10:23:22;;;;;;;23.30;14.00;;;1.50;99.90;;;;;;5048957;28;20032;-73
2022/12/28 10:25:51;;;;;;;25.17;14.93;;;1.50;99.90;;;;;;5049981;28;20116;-73
2022/12/28 10:28:20;;;;;;;32.05;19.73;;;1.50;99.90;;;;;;5050300;28;20021;-73
2022/12/28 10:31:01;;;;;;;39.50;19.58;;;1.60;99.90;;;;;;5049667;28;20094;-72
2022/12/28 10:33:27;;;;;;;31.38;18.67;;;1.60;99.90;;;;;;5052039;28;20025;-73
2022/12/28 10:35:55;;;;;;;36.22;23.25;;;1.60;99.90;;;;;;5050716;28;20171;-72
2022/12/28 10:38:23;;;;;;;29.13;20.63;;;1.70;99.90;;;;;;5050267;28;20029;-73
2022/12/28 10:41:14;;;;;;;33.78;20.48;;;1.70;99.90;;;;;;5050197;28;20525;-73
2022/12/28 10:43:42;;;;;;;34.80;20.60;;;1.70;99.90;;;;;;5047960;28;20029;-74
2022/12/28 10:46:22;;;;;;;34.85;22.40;;;1.70;99.90;;;;;;5051128;28;20056;-73
2022/12/28 10:48:54;;;;;;;44.95;27.05;;;1.70;99.90;;;;;;5050505;28;20027;-73
2022/12/28 10:51:26;;;;;;;45.85;22.23;;;1.70;99.90;;;;;;5049123;28;20102;-75
2022/12/28 10:53:56;;;;;;;48.47;22.42;;;1.70;99.90;;;;;;5045907;28;20082;-73
2022/12/28 10:56:26;;;;;;;41.50;26.85;;;1.70;99.90;;;;;;5051258;28;20475;-73
2022/12/28 10:59:13;;;;;;;29.83;19.27;;;1.70;99.90;;;;;;5052657;28;20028;-74
2022/12/28 11:01:41;;;;;;;37.05;20.02;;;1.80;99.90;;;;;;5054767;28;20556;-74
2022/12/28 11:04:14;;;;;;;50.20;20.60;;;1.80;99.90;;;;;;5055130;28;20029;-73
2022/12/28 11:07:01;;;;;;;77.78;38.47;;;1.80;99.90;;;;;;5054354;28;20033;-73
2022/12/28 11:09:32;;;;;;;60.10;38.10;;;1.90;99.90;;;;;;5053704;28;20079;-73
2022/12/28 11:12:22;;;;;;;62.55;34.55;;;1.90;99.90;;;;;;5054675;28;20033;-73
2022/12/28 11:14:48;;;;;;;52.20;22.75;;;1.90;99.90;;;;;;5053756;28;20025;-80
2022/12/28 11:17:23;;;;;;;42.22;17.85;;;2.00;99.90;;;;;;5046311;28;20025;-80
2022/12/28 11:19:52;;;;;;;53.50;26.65;;;2.00;99.90;;;;;;5052814;28;20029;-80
2022/12/28 11:22:25;;;;;;;52.05;31.65;;;2.00;99.90;;;;;;5055008;28;20389;-80
2022/12/28 11:24:51;;;;;;;69.25;34.55;;;2.10;99.90;;;;;;5051207;28;20100;-73
2022/12/28 11:27:21;;;;;;;62.47;25.70;;;2.10;99.90;;;;;;5055608;28;20033;-73
2022/12/28 11:29:53;;;;;;;52.78;21.00;;;2.20;99.90;;;;;;5055256;28;20075;-73
2022/12/28 11:32:37;;;;;;;68.40;37.05;;;2.20;99.90;;;;;;5053743;28;20029;-73
2022/12/28 11:35:03;;;;;;;120.47;69.05;;;2.20;99.90;;;;;;5047836;28;20056;-79
2022/12/28 11:37:29;;;;;;;84.97;36.05;;;2.20;99.90;;;;;;5045028;28;20029;-73
2022/12/28 11:39:55;;;;;;;65.22;24.80;;;2.30;99.90;;;;;;5053699;28;20087;-74
2022/12/28 11:42:35;;;;;;;41.60;19.45;;;2.30;99.90;;;;;;5053907;28;20013;-73
2022/12/28 11:45:10;;;;;;;112.03;62.47;;;2.30;99.90;;;;;;5053247;28;20104;-80
2022/12/28 11:47:36;;;;;;;48.30;23.70;;;2.30;99.90;;;;;;5055180;28;20546;-73
2022/12/28 11:50:33;;;;;;;67.63;27.73;;;2.40;99.90;;;;;;5053513;28;20128;-80
2022/12/28 11:53:00;;;;;;;63.25;23.70;;;2.40;99.90;;;;;;5055152;28;20017;-73
2022/12/28 11:55:37;;;;;;;120.05;55.85;;;2.50;99.90;;;;;;5054221;28;20028;-80
2022/12/28 11:58:29;;;;;;;132.00;72.40;;;2.50;99.90;;;;;;5049538;28;20049;-80
2022/12/28 12:00:58;;;;;;;84.68;31.20;;;2.50;99.90;;;;;;5024124;28;20044;-73
2022/12/28 12:03:58;;;;;;;54.58;21.60;;;2.60;99.90;;;;;;5052177;28;20017;-73
2022/12/28 12:06:42;;;;;;;25.98;13.85;;;2.60;99.90;;;;;;5052777;28;20029;-80
2022/12/28 12:09:20;;;;;;;98.40;49.20;;;2.70;99.90;;;;;;5052825;28;20037;-73
2022/12/28 12:11:47;;;;;;;56.60;23.63;;;2.80;99.90;;;;;;5053472;28;20024;-79
2022/12/28 12:14:17;;;;;;;40.03;16.60;;;2.90;99.90;;;;;;5053977;28;20078;-79
2022/12/28 12:17:06;;;;;;;25.88;11.38;;;3.10;99.90;;;;;;5046753;28;20024;-79
2022/12/28 12:19:35;;;;;;;46.40;23.65;;;3.20;99.90;;;;;;5054178;28;20032;-73
2022/12/28 12:22:18;;;;;;;66.05;29.90;;;3.30;98.70;;;;;;5051021;28;20498;-73
2022/12/28 12:24:53;;;;;;;41.42;16.30;;;3.40;97.20;;;;;;5054725;28;20025;-80
2022/12/28 12:27:51;;;;;;;28.08;12.35;;;3.50;95.50;;;;;;5053137;28;20104;-80
2022/12/28 12:30:19;;;;;;;19.23;9.73;;;3.50;95.60;;;;;;5048387;28;20489;-72
2022/12/28 12:32:53;;;;;;;64.20;32.88;;;3.60;94.80;;;;;;5052188;28;20437;-73
2022/12/28 12:35:28;;;;;;;40.92;16.70;;;3.60;92.70;;;;;;5049614;28;20032;-73
2022/12/28 12:38:27;;;;;;;68.05;23.85;;;3.60;91.40;;;;;;5047140;28;20041;-73
2022/12/28 12:41:14;;;;;;;80.32;26.83;;;3.60;92.10;;;;;;5041325;28;20076;-74
2022/12/28 12:43:58;;;;;;;42.83;17.60;;;3.70;92.70;;;;;;5040274;28;20139;-73
2022/12/28 12:46:29;;;;;;;39.65;15.38;;;3.80;91.60;;;;;;5045139;28;20028;-78
2022/12/28 12:49:14;;;;;;;49.60;21.17;;;3.80;90.70;;;;;;5050031;28;20115;-79
2022/12/28 12:52:02;;;;;;;30.30;12.82;;;3.80;89.80;;;;;;5039996;28;20494;-79
2022/12/28 12:54:39;;;;;;;28.70;12.45;;;3.90;89.20;;;;;;5050091;28;20091;-79
2022/12/28 12:57:18;;;;;;;21.92;10.90;;;4.00;87.90;;;;;;5045520;28;20033;-79
2022/12/28 13:00:07;;;;;;;20.75;10.68;;;4.10;87.60;;;;;;5037691;28;20086;-79
2022/12/28 13:03:04;;;;;;;15.15;8.35;;;4.20;87.70;;;;;;5050326;28;20037;-79
2022/12/28 13:05:31;;;;;;;12.85;6.65;;;4.20;87.80;;;;;;5043934;28;20026;-73
2022/12/28 13:07:58;;;;;;;14.10;7.25;;;4.30;87.70;;;;;;5051673;28;20025;-78
2022/12/28 13:10:30;;;;;;;17.08;8.43;;;4.30;87.40;;;;;;5048741;28;20067;-73
2022/12/28 13:12:59;;;;;;;15.63;8.10;;;4.40;86.80;;;;;;5053053;28;20017;-73
2022/12/28 13:15:25;;;;;;;12.13;7.57;;;4.30;87.00;;;;;;5050086;28;21302;-73
2022/12/28 13:18:15;;;;;;;12.32;5.68;;;4.30;87.20;;;;;;5051184;28;20025;-73